Terminal Aerodrome Forecast
Issued by NWS Lake Charles, LA

Home | Current Version | Previous Version | Text Only | Print | Product List | Glossary On
Versions: 1 2 3 4 5 6 7 8 9 10 11 12 13 14 15 16 17 18 19 20
000
FTUS44 KLCH 270400 AAA
TAFLCH
TAF AMD
KLCH 270407Z 2704/2724 02010KT P6SM SCT020
     FM270500 03010KT P6SM BKN020
     FM271500 05014KT P6SM SCT030 BKN150=

USA.gov is the U.S. government's official web portal to all federal, state and local government web resources and services.